Time;durP1;ratioP1;P1;durP2;ratioP2;P2;SDS_P1;SDS_P2;PMS_P1;PMS_P2;Temp;Humidity;BMP_temperature;BMP_pressure;BME280_temperature;BME280_humidity;BME280_pressure;Samples;Min_cycle;Max_cycle;Signal;HPM_P1;HPM_P2
2021/12/30 00:00:56;;;;;;;;;1.00;0.75;;;;;;;;5035540;28;8925;-83
2021/12/30 00:03:25;;;;;;;;;0.25;0.25;;;;;;;;5031986;28;8911;-81
2021/12/30 00:05:53;;;;;;;;;0.00;0.00;;;;;;;;5042909;28;8997;-87
2021/12/30 00:08:20;;;;;;;;;1.00;1.00;;;;;;;;5041733;28;8919;-85
2021/12/30 00:10:48;;;;;;;;;0.50;0.50;;;;;;;;5044085;28;8907;-83
2021/12/30 00:13:15;;;;;;;;;0.00;0.00;;;;;;;;5040379;28;8916;-82
2021/12/30 00:15:42;;;;;;;;;0.00;0.00;;;;;;;;5043991;28;8893;-82
2021/12/30 00:18:11;;;;;;;;;0.00;0.00;;;;;;;;5039811;28;8873;-84
2021/12/30 00:20:40;;;;;;;;;0.00;0.00;;;;;;;;5044060;28;8895;-80
2021/12/30 00:23:09;;;;;;;;;1.00;1.00;;;;;;;;5036028;28;8934;-78
2021/12/30 00:25:40;;;;;;;;;1.50;1.00;;;;;;;;5040961;28;8867;-82
2021/12/30 00:28:09;;;;;;;;;0.00;0.00;;;;;;;;5041183;28;9682;-82
2021/12/30 00:30:36;;;;;;;;;0.00;0.00;;;;;;;;5035537;28;8928;-80
2021/12/30 00:33:04;;;;;;;;;0.00;0.00;;;;;;;;5042680;28;8991;-80
2021/12/30 00:35:33;;;;;;;;;0.75;0.75;;;;;;;;5044694;28;9015;-80
2021/12/30 00:38:05;;;;;;;;;0.00;0.00;;;;;;;;5011609;28;8897;-81
2021/12/30 00:40:33;;;;;;;;;1.50;0.25;;;;;;;;5026198;28;8903;-84
2021/12/30 00:43:01;;;;;;;;;0.50;0.50;;;;;;;;5039596;28;8900;-79
2021/12/30 00:45:29;;;;;;;;;0.00;0.00;;;;;;;;5042961;28;8919;-79
2021/12/30 00:47:56;;;;;;;;;0.75;0.75;;;;;;;;5036632;28;8908;-82
2021/12/30 00:50:25;;;;;;;;;0.00;0.00;;;;;;;;5041805;28;8889;-83
2021/12/30 00:52:52;;;;;;;;;1.75;0.75;;;;;;;;5043959;28;9917;-83
2021/12/30 00:55:21;;;;;;;;;0.50;0.50;;;;;;;;5032491;28;8854;-85
2021/12/30 00:57:49;;;;;;;;;0.25;0.25;;;;;;;;5043210;28;8921;-82
2021/12/30 01:00:18;;;;;;;;;0.00;0.00;;;;;;;;5032869;28;8861;-85
2021/12/30 01:02:47;;;;;;;;;0.25;0.25;;;;;;;;5034277;28;8880;-82
2021/12/30 01:05:15;;;;;;;;;0.25;0.25;;;;;;;;5036403;28;8880;-81
2021/12/30 01:07:42;;;;;;;;;0.00;0.00;;;;;;;;5042832;28;9067;-84
2021/12/30 01:10:12;;;;;;;;;0.00;0.00;;;;;;;;5038000;28;8873;-82
2021/12/30 01:12:41;;;;;;;;;0.00;0.00;;;;;;;;5042759;28;8911;-81
2021/12/30 01:15:11;;;;;;;;;0.00;0.00;;;;;;;;5034067;28;8872;-83
2021/12/30 01:17:47;;;;;;;;;2.00;0.75;;;;;;;;5039627;28;8915;-79
2021/12/30 01:20:17;;;;;;;;;0.75;0.75;;;;;;;;5044016;28;8881;-80
2021/12/30 01:22:45;;;;;;;;;0.50;0.50;;;;;;;;5034842;28;8930;-82
2021/12/30 01:25:13;;;;;;;;;0.00;0.00;;;;;;;;5039953;28;8861;-80
2021/12/30 01:27:42;;;;;;;;;0.00;0.00;;;;;;;;5034196;28;8865;-84
2021/12/30 01:30:12;;;;;;;;;0.00;0.00;;;;;;;;5033493;28;8861;-81
2021/12/30 01:32:40;;;;;;;;;0.25;0.25;;;;;;;;5038701;28;8985;-82
2021/12/30 01:35:10;;;;;;;;;0.00;0.00;;;;;;;;5033397;28;8954;-80
2021/12/30 01:37:38;;;;;;;;;0.50;0.50;;;;;;;;5039066;28;8880;-81
2021/12/30 01:40:09;;;;;;;;;0.00;0.00;;;;;;;;5044114;28;8853;-83
2021/12/30 01:42:37;;;;;;;;;0.00;0.00;;;;;;;;5028546;28;8890;-83
2021/12/30 01:45:08;;;;;;;;;0.00;0.00;;;;;;;;5042249;28;8899;-81
2021/12/30 01:47:36;;;;;;;;;0.75;0.75;;;;;;;;5029794;28;8914;-81
2021/12/30 01:50:05;;;;;;;;;1.00;1.00;;;;;;;;5044609;28;8869;-81
2021/12/30 01:52:32;;;;;;;;;0.00;0.00;;;;;;;;5038994;28;8876;-82
2021/12/30 01:54:59;;;;;;;;;0.00;0.00;;;;;;;;5037212;28;9770;-82
2021/12/30 01:57:27;;;;;;;;;0.00;0.00;;;;;;;;5041317;28;8869;-83
2021/12/30 01:59:54;;;;;;;;;0.00;0.00;;;;;;;;5028076;28;9644;-84
2021/12/30 02:02:23;;;;;;;;;0.00;0.00;;;;;;;;5042379;28;8829;-82
2021/12/30 02:04:52;;;;;;;;;0.00;0.00;;;;;;;;5044014;28;8887;-85
2021/12/30 02:07:19;;;;;;;;;0.00;0.00;;;;;;;;5037334;28;8885;-83
2021/12/30 02:09:46;;;;;;;;;0.50;0.50;;;;;;;;5045005;28;9031;-83
2021/12/30 02:12:14;;;;;;;;;0.00;0.00;;;;;;;;5045181;28;8912;-83
2021/12/30 02:14:41;;;;;;;;;0.00;0.00;;;;;;;;5046569;28;8891;-81
2021/12/30 02:17:09;;;;;;;;;0.00;0.00;;;;;;;;5046103;28;8865;-82
2021/12/30 02:19:37;;;;;;;;;0.00;0.00;;;;;;;;5047208;28;8882;-85
2021/12/30 02:22:06;;;;;;;;;0.25;0.25;;;;;;;;5041239;28;8887;-82
2021/12/30 02:24:34;;;;;;;;;0.00;0.00;;;;;;;;5033731;28;8978;-83
2021/12/30 02:27:02;;;;;;;;;0.50;0.50;;;;;;;;5036970;28;8988;-78
2021/12/30 02:29:29;;;;;;;;;0.75;0.75;;;;;;;;5043926;28;8865;-81
2021/12/30 02:31:56;;;;;;;;;1.25;0.00;;;;;;;;5040320;28;8834;-83
2021/12/30 02:34:24;;;;;;;;;0.00;0.00;;;;;;;;5040337;28;9004;-85
2021/12/30 02:36:51;;;;;;;;;0.00;0.00;;;;;;;;5046425;28;8877;-82
2021/12/30 02:39:22;;;;;;;;;0.00;0.00;;;;;;;;5045719;28;9016;-80
2021/12/30 02:41:50;;;;;;;;;0.00;0.00;;;;;;;;5035177;28;8881;-82
2021/12/30 02:44:17;;;;;;;;;0.00;0.00;;;;;;;;5035932;28;8878;-86
2021/12/30 02:46:45;;;;;;;;;0.00;0.00;;;;;;;;5043488;28;8898;-86
2021/12/30 02:49:13;;;;;;;;;0.00;0.00;;;;;;;;5040885;28;8872;-84
2021/12/30 02:51:40;;;;;;;;;0.00;0.00;;;;;;;;5044730;28;9040;-80
2021/12/30 02:54:07;;;;;;;;;0.00;0.00;;;;;;;;5035262;28;8860;-81
2021/12/30 02:56:37;;;;;;;;;0.00;0.00;;;;;;;;5034768;28;8881;-82
2021/12/30 02:59:05;;;;;;;;;0.00;0.00;;;;;;;;5041925;28;8960;-82
2021/12/30 03:01:34;;;;;;;;;0.00;0.00;;;;;;;;5043982;28;8896;-85
2021/12/30 03:04:03;;;;;;;;;0.00;0.00;;;;;;;;5045371;28;8904;-84
2021/12/30 03:06:32;;;;;;;;;0.00;0.00;;;;;;;;5039522;28;8895;-83
2021/12/30 03:08:59;;;;;;;;;0.00;0.00;;;;;;;;5045457;28;8897;-82
2021/12/30 03:11:28;;;;;;;;;1.00;0.00;;;;;;;;5029156;28;8879;-83
2021/12/30 03:13:59;;;;;;;;;0.00;0.00;;;;;;;;5043168;28;8873;-85
2021/12/30 03:16:31;;;;;;;;;0.00;0.00;;;;;;;;5044778;28;8869;-82
2021/12/30 03:18:59;;;;;;;;;0.00;0.00;;;;;;;;5039884;28;8889;-81
2021/12/30 03:21:27;;;;;;;;;0.25;0.00;;;;;;;;5040240;28;9046;-83
2021/12/30 03:23:56;;;;;;;;;0.50;0.50;;;;;;;;5043676;28;8877;-83
2021/12/30 03:26:24;;;;;;;;;0.00;0.00;;;;;;;;5045332;28;8877;-82
2021/12/30 03:28:51;;;;;;;;;2.00;1.00;;;;;;;;5038073;28;8857;-81
2021/12/30 03:31:21;;;;;;;;;0.50;0.50;;;;;;;;5044161;28;9586;-81
2021/12/30 03:33:49;;;;;;;;;0.00;0.00;;;;;;;;5046636;28;9004;-86
2021/12/30 03:36:18;;;;;;;;;0.00;0.00;;;;;;;;5041970;28;8994;-80
2021/12/30 03:38:47;;;;;;;;;0.25;0.25;;;;;;;;5046037;28;8884;-86
2021/12/30 03:41:16;;;;;;;;;0.00;0.00;;;;;;;;5045461;28;8970;-84
2021/12/30 03:43:44;;;;;;;;;1.00;1.00;;;;;;;;5041669;28;8861;-83
2021/12/30 03:46:12;;;;;;;;;1.00;1.00;;;;;;;;5045108;28;8971;-82
2021/12/30 03:48:43;;;;;;;;;1.00;1.00;;;;;;;;5044817;28;8869;-86
2021/12/30 03:51:14;;;;;;;;;0.00;0.00;;;;;;;;5047722;28;8880;-81
2021/12/30 03:53:45;;;;;;;;;0.50;0.50;;;;;;;;5037778;28;8868;-81
2021/12/30 03:56:14;;;;;;;;;1.00;1.00;;;;;;;;5045269;28;8885;-84
2021/12/30 03:58:43;;;;;;;;;1.00;1.00;;;;;;;;5041510;28;8865;-82
2021/12/30 04:01:11;;;;;;;;;1.00;1.00;;;;;;;;5038469;28;8810;-82
2021/12/30 04:03:40;;;;;;;;;0.00;0.00;;;;;;;;5045588;28;8876;-81
2021/12/30 04:06:08;;;;;;;;;2.00;0.00;;;;;;;;5044227;28;9020;-83
2021/12/30 04:08:36;;;;;;;;;1.50;1.50;;;;;;;;5045188;28;8999;-81
2021/12/30 04:11:03;;;;;;;;;1.50;1.00;;;;;;;;5040974;28;8880;-82
2021/12/30 04:13:31;;;;;;;;;1.00;1.00;;;;;;;;5038160;28;8877;-82
2021/12/30 04:15:59;;;;;;;;;1.00;1.00;;;;;;;;5044172;28;8899;-80
2021/12/30 04:18:27;;;;;;;;;0.00;0.00;;;;;;;;5044278;28;9683;-83
2021/12/30 04:20:55;;;;;;;;;0.00;0.00;;;;;;;;5045394;28;9620;-82
2021/12/30 04:23:23;;;;;;;;;0.00;0.00;;;;;;;;5039398;28;9734;-83
2021/12/30 04:25:50;;;;;;;;;0.00;0.00;;;;;;;;5043260;28;8885;-84
2021/12/30 04:28:18;;;;;;;;;1.00;1.00;;;;;;;;5043061;28;8905;-89
2021/12/30 04:30:45;;;;;;;;;0.00;0.00;;;;;;;;5043375;28;8821;-84
2021/12/30 04:33:13;;;;;;;;;1.00;1.00;;;;;;;;5057338;28;8861;-80
2021/12/30 04:35:40;;;;;;;;;0.25;0.00;;;;;;;;5045087;28;8918;-82
2021/12/30 04:38:09;;;;;;;;;0.00;0.00;;;;;;;;5039860;28;8970;-80
2021/12/30 04:40:37;;;;;;;;;0.00;0.00;;;;;;;;5043884;28;8901;-83
2021/12/30 04:43:04;;;;;;;;;0.00;0.00;;;;;;;;5044856;28;8857;-82
2021/12/30 04:45:31;;;;;;;;;0.00;0.00;;;;;;;;5030622;28;8874;-84
2021/12/30 04:47:58;;;;;;;;;0.00;0.00;;;;;;;;5040501;28;8881;-85
2021/12/30 04:50:26;;;;;;;;;0.00;0.00;;;;;;;;5036778;28;8848;-85
2021/12/30 04:52:53;;;;;;;;;1.00;1.00;;;;;;;;5035455;28;8893;-80
2021/12/30 04:55:22;;;;;;;;;2.00;0.00;;;;;;;;5032868;28;8939;-80
2021/12/30 04:57:49;;;;;;;;;0.25;0.25;;;;;;;;5040940;28;8899;-82
2021/12/30 05:00:17;;;;;;;;;0.00;0.00;;;;;;;;5040766;28;9000;-82
2021/12/30 05:05:29;;;;;;;;;3.50;1.75;;;;;;;;5042014;28;8908;-83
2021/12/30 05:07:56;;;;;;;;;0.25;0.25;;;;;;;;5039144;28;8861;-79
2021/12/30 05:10:27;;;;;;;;;0.00;0.00;;;;;;;;5043080;28;8870;-81
2021/12/30 05:12:55;;;;;;;;;2.00;0.00;;;;;;;;5045620;28;8848;-81
2021/12/30 05:15:22;;;;;;;;;0.50;0.50;;;;;;;;5028745;28;8868;-81
2021/12/30 05:17:49;;;;;;;;;0.50;0.00;;;;;;;;5044193;28;8869;-82
2021/12/30 05:20:16;;;;;;;;;0.00;0.00;;;;;;;;5036908;28;9687;-79
2021/12/30 05:22:44;;;;;;;;;0.00;0.00;;;;;;;;5035589;28;8868;-80
2021/12/30 05:25:12;;;;;;;;;1.00;1.00;;;;;;;;5041275;28;8869;-80
2021/12/30 05:27:41;;;;;;;;;0.25;0.25;;;;;;;;5041971;28;8903;-80
2021/12/30 05:30:10;;;;;;;;;1.50;1.50;;;;;;;;5039857;28;8871;-83
2021/12/30 05:32:38;;;;;;;;;1.00;1.00;;;;;;;;5043700;28;8873;-83
2021/12/30 05:35:07;;;;;;;;;1.25;1.25;;;;;;;;5038124;28;8870;-80
2021/12/30 05:37:35;;;;;;;;;1.25;1.25;;;;;;;;5032927;28;8882;-87
2021/12/30 05:40:03;;;;;;;;;1.00;1.00;;;;;;;;5047740;28;8869;-83
2021/12/30 05:42:30;;;;;;;;;2.50;1.00;;;;;;;;5045715;28;8966;-79
2021/12/30 05:44:59;;;;;;;;;1.75;1.75;;;;;;;;5047178;28;8861;-80
2021/12/30 05:47:26;;;;;;;;;2.00;2.00;;;;;;;;5043474;28;8862;-79
2021/12/30 05:49:54;;;;;;;;;2.75;2.25;;;;;;;;5040644;28;8871;-80
2021/12/30 05:52:21;;;;;;;;;1.75;1.75;;;;;;;;5041661;28;8856;-81
2021/12/30 05:54:49;;;;;;;;;1.00;1.00;;;;;;;;5040289;28;8879;-79
2021/12/30 05:57:16;;;;;;;;;2.25;1.00;;;;;;;;5045162;28;8853;-86
2021/12/30 05:59:43;;;;;;;;;2.00;2.00;;;;;;;;5044823;28;9635;-84
2021/12/30 06:02:12;;;;;;;;;1.00;1.00;;;;;;;;5038905;28;8826;-81
2021/12/30 06:04:41;;;;;;;;;0.25;0.25;;;;;;;;5040549;28;8884;-78
2021/12/30 06:07:08;;;;;;;;;0.00;0.00;;;;;;;;5039160;28;8979;-80
2021/12/30 06:09:36;;;;;;;;;0.75;0.75;;;;;;;;5044589;28;8861;-84
2021/12/30 06:12:04;;;;;;;;;0.00;0.00;;;;;;;;5035949;28;8978;-79
2021/12/30 06:14:31;;;;;;;;;2.00;0.25;;;;;;;;5038042;28;8880;-80
2021/12/30 06:16:59;;;;;;;;;0.00;0.00;;;;;;;;5030249;28;8918;-80
2021/12/30 06:19:27;;;;;;;;;2.25;0.50;;;;;;;;5046128;28;8881;-81
2021/12/30 06:21:58;;;;;;;;;1.00;1.00;;;;;;;;5044513;28;8889;-75
2021/12/30 06:24:25;;;;;;;;;0.00;0.00;;;;;;;;5041045;28;8887;-77
2021/12/30 06:26:53;;;;;;;;;0.00;0.00;;;;;;;;5046678;28;8866;-78
2021/12/30 06:29:20;;;;;;;;;0.00;0.00;;;;;;;;5043411;28;8865;-77
2021/12/30 06:31:48;;;;;;;;;0.00;0.00;;;;;;;;5043935;28;8891;-79
2021/12/30 06:34:15;;;;;;;;;0.00;0.00;;;;;;;;5041112;28;8889;-78
2021/12/30 06:36:44;;;;;;;;;1.00;0.00;;;;;;;;5040742;28;9556;-78
2021/12/30 06:39:11;;;;;;;;;0.00;0.00;;;;;;;;5043608;28;8849;-77
2021/12/30 06:41:39;;;;;;;;;0.25;0.00;;;;;;;;5043476;28;8992;-76
2021/12/30 06:44:06;;;;;;;;;0.00;0.00;;;;;;;;5042546;28;8873;-77
2021/12/30 06:46:34;;;;;;;;;1.00;0.00;;;;;;;;5044151;28;8865;-77
2021/12/30 06:49:03;;;;;;;;;0.00;0.00;;;;;;;;5038579;28;8861;-77
2021/12/30 06:51:35;;;;;;;;;0.00;0.00;;;;;;;;5043568;28;8891;-77
2021/12/30 06:54:04;;;;;;;;;1.00;0.00;;;;;;;;5044646;28;8872;-77
2021/12/30 06:56:31;;;;;;;;;0.00;0.00;;;;;;;;5042348;28;8850;-77
2021/12/30 06:58:59;;;;;;;;;0.00;0.00;;;;;;;;5039922;28;8888;-77
2021/12/30 07:01:29;;;;;;;;;0.00;0.00;;;;;;;;5040177;28;8830;-78
2021/12/30 07:03:56;;;;;;;;;0.00;0.00;;;;;;;;5041451;28;8880;-76
2021/12/30 07:06:23;;;;;;;;;1.50;0.00;;;;;;;;5042701;28;8875;-78
2021/12/30 07:08:51;;;;;;;;;0.00;0.00;;;;;;;;5042082;28;8896;-77
2021/12/30 07:11:19;;;;;;;;;0.00;0.00;;;;;;;;5044415;28;8976;-77
2021/12/30 07:13:47;;;;;;;;;0.00;0.00;;;;;;;;5041724;28;8892;-77
2021/12/30 07:16:14;;;;;;;;;0.00;0.00;;;;;;;;5042845;28;8877;-78
2021/12/30 07:18:41;;;;;;;;;0.00;0.00;;;;;;;;5041259;28;8915;-77
2021/12/30 07:21:08;;;;;;;;;0.00;0.00;;;;;;;;5059763;28;8873;-76
2021/12/30 07:23:36;;;;;;;;;1.50;0.00;;;;;;;;5044228;28;8980;-76
2021/12/30 07:26:03;;;;;;;;;0.00;0.00;;;;;;;;5041723;28;8931;-77
2021/12/30 07:28:32;;;;;;;;;0.25;0.00;;;;;;;;5040853;28;9044;-77
2021/12/30 07:31:00;;;;;;;;;0.50;0.00;;;;;;;;5041003;28;8887;-76
2021/12/30 07:33:27;;;;;;;;;1.00;1.00;;;;;;;;5041531;28;9012;-77
2021/12/30 07:35:54;;;;;;;;;1.00;0.00;;;;;;;;5041193;28;8865;-76
2021/12/30 07:38:23;;;;;;;;;0.00;0.00;;;;;;;;5043216;28;8865;-75
2021/12/30 07:40:50;;;;;;;;;0.00;0.00;;;;;;;;5041842;28;9618;-76
2021/12/30 07:43:18;;;;;;;;;1.25;1.00;;;;;;;;5041614;28;8853;-75
2021/12/30 07:45:47;;;;;;;;;1.50;1.00;;;;;;;;5043994;28;8979;-75
2021/12/30 07:48:14;;;;;;;;;1.00;1.00;;;;;;;;5043466;28;8905;-75
2021/12/30 07:50:41;;;;;;;;;1.00;1.00;;;;;;;;5039191;28;8977;-74
2021/12/30 07:53:09;;;;;;;;;0.75;0.75;;;;;;;;5039746;28;8877;-76
2021/12/30 07:55:36;;;;;;;;;1.25;0.00;;;;;;;;5041429;28;8909;-75
2021/12/30 07:58:03;;;;;;;;;0.50;0.50;;;;;;;;5037645;28;9871;-78
2021/12/30 08:00:31;;;;;;;;;0.00;0.00;;;;;;;;5033153;28;8813;-72
2021/12/30 08:03:00;;;;;;;;;1.50;0.00;;;;;;;;5036323;28;8974;-73
2021/12/30 08:05:28;;;;;;;;;1.00;1.00;;;;;;;;5041920;28;8885;-70
2021/12/30 08:07:56;;;;;;;;;1.75;0.50;;;;;;;;5038736;28;8871;-70
2021/12/30 08:10:24;;;;;;;;;0.50;0.00;;;;;;;;5038624;28;9747;-72
2021/12/30 08:12:52;;;;;;;;;2.50;1.25;;;;;;;;5041427;28;8869;-71
2021/12/30 08:15:20;;;;;;;;;0.00;0.00;;;;;;;;5040300;28;8904;-70
2021/12/30 08:17:49;;;;;;;;;0.00;0.00;;;;;;;;5042210;28;8877;-70
2021/12/30 08:20:22;;;;;;;;;1.00;1.00;;;;;;;;5035347;28;8953;-72
2021/12/30 08:22:52;;;;;;;;;1.00;1.00;;;;;;;;5042300;28;8862;-73
2021/12/30 08:25:21;;;;;;;;;1.00;1.00;;;;;;;;5043600;28;9562;-73
2021/12/30 08:27:49;;;;;;;;;1.50;0.75;;;;;;;;5040018;28;9623;-71
2021/12/30 08:30:18;;;;;;;;;1.50;1.50;;;;;;;;5037848;28;9598;-72
2021/12/30 08:32:47;;;;;;;;;0.75;0.75;;;;;;;;5037957;28;8911;-73
2021/12/30 08:35:17;;;;;;;;;2.75;0.50;;;;;;;;5039443;28;8869;-73
2021/12/30 08:37:45;;;;;;;;;1.25;1.25;;;;;;;;5038789;28;8842;-72
2021/12/30 08:40:14;;;;;;;;;1.00;1.00;;;;;;;;5041075;28;8887;-72
2021/12/30 08:42:43;;;;;;;;;0.50;0.50;;;;;;;;5038053;28;8979;-73
2021/12/30 08:45:10;;;;;;;;;0.25;0.25;;;;;;;;5038475;28;8865;-74
2021/12/30 08:47:38;;;;;;;;;0.75;0.75;;;;;;;;5040810;28;8881;-73
2021/12/30 08:50:08;;;;;;;;;3.00;1.00;;;;;;;;5040209;28;8877;-72
2021/12/30 08:52:38;;;;;;;;;1.00;1.00;;;;;;;;5036510;28;8988;-72
2021/12/30 08:55:06;;;;;;;;;1.50;1.50;;;;;;;;5037464;28;8889;-74
2021/12/30 08:57:37;;;;;;;;;1.00;1.00;;;;;;;;5039482;28;8877;-73
2021/12/30 09:00:06;;;;;;;;;1.00;1.00;;;;;;;;5038446;28;8872;-72
2021/12/30 09:02:33;;;;;;;;;2.00;1.50;;;;;;;;5037110;28;8857;-74
2021/12/30 09:05:02;;;;;;;;;1.00;1.00;;;;;;;;5041440;28;8888;-72
2021/12/30 09:07:29;;;;;;;;;3.50;0.75;;;;;;;;5035924;28;8888;-72
2021/12/30 09:09:58;;;;;;;;;1.25;1.25;;;;;;;;5039144;28;8935;-74
2021/12/30 09:12:25;;;;;;;;;1.50;1.50;;;;;;;;5039483;28;9462;-75
2021/12/30 09:14:52;;;;;;;;;1.75;1.00;;;;;;;;5040169;28;8889;-74
2021/12/30 09:17:20;;;;;;;;;2.25;1.00;;;;;;;;5040608;28;8879;-72
2021/12/30 09:19:47;;;;;;;;;2.00;1.00;;;;;;;;5037564;28;8869;-73
2021/12/30 09:22:14;;;;;;;;;1.00;1.00;;;;;;;;5039966;28;8876;-74
2021/12/30 09:24:43;;;;;;;;;1.00;1.00;;;;;;;;5035702;28;8893;-74
2021/12/30 09:27:12;;;;;;;;;2.25;1.00;;;;;;;;5042387;28;8885;-74
2021/12/30 09:29:39;;;;;;;;;2.25;0.50;;;;;;;;5041185;28;8869;-74
2021/12/30 09:32:07;;;;;;;;;3.50;2.00;;;;;;;;5039211;28;8822;-75
2021/12/30 09:34:34;;;;;;;;;1.25;1.25;;;;;;;;5041790;28;8876;-75
2021/12/30 09:37:02;;;;;;;;;2.00;2.00;;;;;;;;5041300;28;8887;-74
2021/12/30 09:39:30;;;;;;;;;2.75;2.75;;;;;;;;5038623;28;9033;-72
2021/12/30 09:41:57;;;;;;;;;4.25;1.00;;;;;;;;5041555;28;8906;-74
2021/12/30 09:44:26;;;;;;;;;2.50;2.00;;;;;;;;5042790;28;9651;-74
2021/12/30 09:46:53;;;;;;;;;2.50;2.00;;;;;;;;5040373;28;8861;-74
2021/12/30 09:49:23;;;;;;;;;4.00;1.00;;;;;;;;5042824;28;9612;-72
2021/12/30 09:51:51;;;;;;;;;7.00;2.75;;;;;;;;5041473;28;8881;-72
2021/12/30 09:54:19;;;;;;;;;2.75;1.50;;;;;;;;5040401;28;8881;-73
2021/12/30 09:56:46;;;;;;;;;3.50;2.00;;;;;;;;5043386;28;8915;-74
2021/12/30 09:59:15;;;;;;;;;1.75;1.75;;;;;;;;5038734;28;8869;-72
2021/12/30 10:01:44;;;;;;;;;3.25;2.00;;;;;;;;5040048;28;8841;-72
2021/12/30 10:04:12;;;;;;;;;3.25;2.25;;;;;;;;5041479;28;9007;-72
2021/12/30 10:06:43;;;;;;;;;1.00;1.00;;;;;;;;5040305;28;9683;-72
2021/12/30 10:09:12;;;;;;;;;3.00;3.00;;;;;;;;5042215;28;8865;-72
2021/12/30 10:11:51;;;;;;;;;4.25;2.00;;;;;;;;5042193;28;8913;-72
2021/12/30 10:14:30;;;;;;;;;4.00;2.75;;;;;;;;5042288;28;8869;-73
2021/12/30 10:17:20;;;;;;;;;2.25;2.25;;;;;;;;5041266;28;8935;-73
2021/12/30 10:19:49;;;;;;;;;2.25;2.00;;;;;;;;5042703;28;8869;-73
2021/12/30 10:22:19;;;;;;;;;1.00;1.00;;;;;;;;5042614;28;8861;-72
2021/12/30 10:24:47;;;;;;;;;2.00;2.00;;;;;;;;5044415;28;8979;-74
2021/12/30 10:27:24;;;;;;;;;3.00;2.00;;;;;;;;5043552;28;8862;-73
2021/12/30 10:29:52;;;;;;;;;1.25;1.25;;;;;;;;5044267;28;9008;-73
2021/12/30 10:32:24;;;;;;;;;2.75;1.00;;;;;;;;5045632;28;8814;-73
2021/12/30 10:35:11;;;;;;;;;2.00;2.00;;;;;;;;5044450;28;8881;-72
2021/12/30 10:37:39;;;;;;;;;3.00;1.75;;;;;;;;5045982;28;8873;-73
2021/12/30 10:40:08;;;;;;;;;4.00;2.50;;;;;;;;5046166;28;8850;-74
2021/12/30 10:42:37;;;;;;;;;3.50;1.00;;;;;;;;5040099;28;8867;-71
2021/12/30 10:45:06;;;;;;;;;0.00;0.00;;;;;;;;5043019;28;8853;-74
2021/12/30 10:47:51;;;;;;;;;4.00;2.00;;;;;;;;5041998;28;9012;-73
2021/12/30 10:50:22;;;;;;;;;2.50;1.00;;;;;;;;5045753;28;8972;-72
2021/12/30 10:52:51;;;;;;;;;2.25;0.75;;;;;;;;5043425;28;8861;-72
2021/12/30 10:55:19;;;;;;;;;3.00;3.00;;;;;;;;5036907;28;8880;-74
2021/12/30 10:57:47;;;;;;;;;1.50;1.50;;;;;;;;5045279;28;8859;-73
2021/12/30 11:00:26;;;;;;;;;1.00;1.00;;;;;;;;5043859;28;8896;-73
2021/12/30 11:02:55;;;;;;;;;1.00;1.00;;;;;;;;5036440;28;8889;-74
2021/12/30 11:05:22;;;;;;;;;1.00;1.00;;;;;;;;5044942;28;8893;-74
2021/12/30 11:07:52;;;;;;;;;0.50;0.50;;;;;;;;5046357;28;9732;-73
2021/12/30 11:10:30;;;;;;;;;1.50;1.00;;;;;;;;5045569;28;8888;-72
2021/12/30 11:13:10;;;;;;;;;2.75;2.00;;;;;;;;5038532;28;8865;-74
2021/12/30 11:15:37;;;;;;;;;1.75;1.75;;;;;;;;5030803;28;8910;-76
2021/12/30 11:18:10;;;;;;;;;1.25;1.25;;;;;;;;5043791;28;8996;-74
2021/12/30 11:20:40;;;;;;;;;2.00;2.00;;;;;;;;5044489;28;8935;-74
2021/12/30 11:23:07;;;;;;;;;1.25;0.50;;;;;;;;5039541;28;8921;-73
2021/12/30 11:25:35;;;;;;;;;0.00;0.00;;;;;;;;5040696;28;9014;-78
2021/12/30 11:28:03;;;;;;;;;2.75;1.25;;;;;;;;5040498;28;8907;-74
2021/12/30 11:30:31;;;;;;;;;0.00;0.00;;;;;;;;5038247;28;8782;-75
2021/12/30 11:32:58;;;;;;;;;0.00;0.00;;;;;;;;5039354;28;8857;-78
2021/12/30 11:35:28;;;;;;;;;2.75;1.00;;;;;;;;5054155;28;9520;-78
2021/12/30 11:37:57;;;;;;;;;1.75;1.00;;;;;;;;5046811;28;8881;-74
2021/12/30 11:40:26;;;;;;;;;3.00;2.00;;;;;;;;5047965;28;8861;-74
2021/12/30 11:42:58;;;;;;;;;1.00;1.00;;;;;;;;5038967;28;9023;-74
2021/12/30 11:45:29;;;;;;;;;1.75;1.75;;;;;;;;5041235;28;8980;-72
2021/12/30 11:48:03;;;;;;;;;1.00;1.00;;;;;;;;5041605;28;9619;-75
2021/12/30 11:50:34;;;;;;;;;3.00;1.00;;;;;;;;5041486;28;8904;-74
2021/12/30 11:53:04;;;;;;;;;1.25;0.00;;;;;;;;5044166;28;9651;-73
2021/12/30 11:55:57;;;;;;;;;2.00;1.00;;;;;;;;5041257;28;9360;-74
2021/12/30 11:58:46;;;;;;;;;1.00;1.00;;;;;;;;5029475;28;8949;-72
2021/12/30 12:01:34;;;;;;;;;1.00;1.00;;;;;;;;5035397;28;8893;-73
2021/12/30 12:04:05;;;;;;;;;0.00;0.00;;;;;;;;5032387;28;8876;-74
2021/12/30 12:06:36;;;;;;;;;3.25;0.25;;;;;;;;5036718;28;8877;-73
2021/12/30 12:09:08;;;;;;;;;2.25;1.25;;;;;;;;5044781;28;8907;-73
2021/12/30 12:11:49;;;;;;;;;2.50;1.25;;;;;;;;5042213;28;9004;-73
2021/12/30 12:14:18;;;;;;;;;2.50;0.00;;;;;;;;5039766;28;8897;-77
2021/12/30 12:17:00;;;;;;;;;1.00;1.00;;;;;;;;5040653;28;9015;-76
2021/12/30 12:19:40;;;;;;;;;4.00;2.00;;;;;;;;5039951;28;8858;-76
2021/12/30 12:22:10;;;;;;;;;2.00;2.00;;;;;;;;5042373;28;8884;-74
2021/12/30 12:24:41;;;;;;;;;1.00;1.00;;;;;;;;5040061;28;8959;-73
2021/12/30 12:27:11;;;;;;;;;1.50;1.50;;;;;;;;5038056;28;8853;-74
2021/12/30 12:29:46;;;;;;;;;2.25;1.00;;;;;;;;5039689;28;8849;-74
2021/12/30 12:32:16;;;;;;;;;1.00;1.00;;;;;;;;5033972;28;8836;-74
2021/12/30 12:34:46;;;;;;;;;5.00;2.00;;;;;;;;5040529;28;8885;-74
2021/12/30 12:37:50;;;;;;;;;1.50;0.00;;;;;;;;5042192;28;9659;-74
2021/12/30 12:40:40;;;;;;;;;2.50;1.00;;;;;;;;5042645;28;8868;-73
2021/12/30 12:43:15;;;;;;;;;0.00;0.00;;;;;;;;5035895;28;8838;-75
2021/12/30 12:45:53;;;;;;;;;3.00;1.00;;;;;;;;5034733;28;8869;-74
2021/12/30 12:48:35;;;;;;;;;2.00;1.50;;;;;;;;5039418;28;8908;-75
2021/12/30 12:51:06;;;;;;;;;1.25;1.00;;;;;;;;5040356;28;8907;-76
2021/12/30 12:53:49;;;;;;;;;1.00;1.00;;;;;;;;5040657;28;8923;-74
2021/12/30 12:56:22;;;;;;;;;5.00;1.00;;;;;;;;5041302;28;8849;-74
2021/12/30 12:58:51;;;;;;;;;1.00;1.00;;;;;;;;5039579;28;8878;-74
2021/12/30 13:01:24;;;;;;;;;1.50;1.00;;;;;;;;5039144;28;8825;-74
2021/12/30 13:03:52;;;;;;;;;1.00;1.00;;;;;;;;5039115;28;8892;-74
2021/12/30 13:06:23;;;;;;;;;2.50;1.50;;;;;;;;5041032;28;8877;-74
2021/12/30 13:08:53;;;;;;;;;1.00;1.00;;;;;;;;5043089;28;8899;-74
2021/12/30 13:11:30;;;;;;;;;0.00;0.00;;;;;;;;5040156;28;8884;-74
2021/12/30 13:13:58;;;;;;;;;2.00;0.25;;;;;;;;5037792;28;8846;-76
2021/12/30 13:16:28;;;;;;;;;1.00;1.00;;;;;;;;5039303;28;8899;-75
2021/12/30 13:19:05;;;;;;;;;2.75;1.75;;;;;;;;5043122;28;8881;-74
2021/12/30 13:21:55;;;;;;;;;2.25;1.00;;;;;;;;5037810;28;8953;-75
2021/12/30 13:24:32;;;;;;;;;1.25;0.75;;;;;;;;5035218;28;8842;-75
2021/12/30 13:27:05;;;;;;;;;1.50;1.00;;;;;;;;5037263;28;8865;-74
2021/12/30 13:29:35;;;;;;;;;1.75;1.75;;;;;;;;5040012;28;8905;-73
2021/12/30 13:32:04;;;;;;;;;2.00;1.00;;;;;;;;5037163;28;8847;-74
2021/12/30 13:34:33;;;;;;;;;1.00;1.00;;;;;;;;5039027;28;8869;-73
2021/12/30 13:37:15;;;;;;;;;1.00;1.00;;;;;;;;5040847;28;8903;-73
2021/12/30 13:39:45;;;;;;;;;1.75;1.00;;;;;;;;5039633;28;8879;-73
2021/12/30 13:42:15;;;;;;;;;0.75;0.75;;;;;;;;5037771;28;8889;-74
2021/12/30 13:44:43;;;;;;;;;1.00;1.00;;;;;;;;5040016;28;8873;-74
2021/12/30 13:47:23;;;;;;;;;1.00;1.00;;;;;;;;5037031;28;9046;-74
2021/12/30 13:49:52;;;;;;;;;1.00;1.00;;;;;;;;5043223;28;8864;-74
2021/12/30 13:52:23;;;;;;;;;1.00;1.00;;;;;;;;5038721;28;8880;-73
2021/12/30 13:55:15;;;;;;;;;3.00;1.00;;;;;;;;5040669;28;8883;-74
2021/12/30 13:57:44;;;;;;;;;0.00;0.00;;;;;;;;5041830;28;8911;-74
2021/12/30 14:00:13;;;;;;;;;1.00;1.00;;;;;;;;5042106;28;8891;-74
2021/12/30 14:02:41;;;;;;;;;1.00;1.00;;;;;;;;5038365;28;9663;-74
2021/12/30 14:05:14;;;;;;;;;1.00;1.00;;;;;;;;5042553;28;8882;-74
2021/12/30 14:07:44;;;;;;;;;2.00;1.75;;;;;;;;5034904;28;8873;-74
2021/12/30 14:10:14;;;;;;;;;4.75;1.25;;;;;;;;5042984;28;8857;-73
2021/12/30 14:12:57;;;;;;;;;1.00;1.00;;;;;;;;5041470;28;8908;-74
2021/12/30 14:15:25;;;;;;;;;1.25;1.25;;;;;;;;5043823;28;8870;-74
2021/12/30 14:17:59;;;;;;;;;2.50;0.50;;;;;;;;5042001;28;8873;-73
2021/12/30 14:20:27;;;;;;;;;1.00;1.00;;;;;;;;5041985;28;8877;-74
2021/12/30 14:22:54;;;;;;;;;1.75;1.75;;;;;;;;5041762;28;8857;-73
2021/12/30 14:25:32;;;;;;;;;1.25;1.25;;;;;;;;5040915;28;8869;-74
2021/12/30 14:28:01;;;;;;;;;1.75;1.75;;;;;;;;5042298;28;8885;-77
2021/12/30 14:30:33;;;;;;;;;0.00;0.00;;;;;;;;5040885;28;8921;-75
2021/12/30 14:33:17;;;;;;;;;2.50;1.00;;;;;;;;5041700;28;8994;-73
2021/12/30 14:35:46;;;;;;;;;0.00;0.00;;;;;;;;5040738;28;8895;-75
2021/12/30 14:38:28;;;;;;;;;0.25;0.25;;;;;;;;5037672;28;8845;-75
2021/12/30 14:41:14;;;;;;;;;0.25;0.25;;;;;;;;5042426;28;9315;-74
2021/12/30 14:44:01;;;;;;;;;1.00;1.00;;;;;;;;5042337;28;9639;-74
2021/12/30 14:46:28;;;;;;;;;0.00;0.00;;;;;;;;5045025;28;8904;-73
2021/12/30 14:49:00;;;;;;;;;1.25;1.00;;;;;;;;5045004;28;8887;-75
2021/12/30 14:51:33;;;;;;;;;3.00;1.00;;;;;;;;5044429;28;9048;-74
2021/12/30 14:54:02;;;;;;;;;0.50;0.50;;;;;;;;5042802;28;8865;-74
2021/12/30 14:56:34;;;;;;;;;1.00;1.00;;;;;;;;5041712;28;8849;-74
2021/12/30 14:59:01;;;;;;;;;2.00;2.00;;;;;;;;5043686;28;8892;-74
2021/12/30 15:01:29;;;;;;;;;2.00;1.00;;;;;;;;5043170;28;8817;-75
2021/12/30 15:03:58;;;;;;;;;1.00;1.00;;;;;;;;5044415;28;8873;-73
2021/12/30 15:06:25;;;;;;;;;2.75;1.00;;;;;;;;5040592;28;8944;-74
2021/12/30 15:08:53;;;;;;;;;1.00;0.50;;;;;;;;5043958;28;8849;-76
2021/12/30 15:11:22;;;;;;;;;1.50;1.50;;;;;;;;5041325;28;8880;-75
2021/12/30 15:13:51;;;;;;;;;1.25;1.25;;;;;;;;5041923;28;8869;-74
2021/12/30 15:16:20;;;;;;;;;1.50;1.50;;;;;;;;5043212;28;8846;-74